Terminal Aerodrome Forecast
Issued by NWS Louisville, KY

Home | Current Version | Previous Version | Text Only | Print | Product List | Glossary On
Versions: 1 2 3 4 5 6 7 8 9 10 11 12 13 14 15 16 17 18 19 20 21
760
FTUS43 KLMK 240520
TAFSDF
TAF
KSDF 240520Z 2406/2512 28008KT P6SM VCSH OVC025
     FM240900 28007KT P6SM BKN018
     FM241800 28012KT P6SM BKN030
     FM242300 28009KT P6SM SCT070
     FM250100 27004KT P6SM FEW070=

USA.gov is the U.S. government's official web portal to all federal, state and local government web resources and services.